Time;durP1;ratioP1;P1;durP2;ratioP2;P2;SDS_P1;SDS_P2;PMS_P1;PMS_P2;Temp;Humidity;BMP_temperature;BMP_pressure;BME280_temperature;BME280_humidity;BME280_pressure;Samples;Min_cycle;Max_cycle;Signal;HPM_P1;HPM_P2
2022/11/19 04:02:21;;;;;;;5.22;1.80;;;14.70;60.50;;;;;;5563226;24;20524;-78
2022/11/19 04:04:58;;;;;;;8.10;1.63;;;14.60;60.70;;;;;;4838316;29;20158;-80
2022/11/19 04:07:51;;;;;;;5.95;1.75;;;14.40;60.80;;;;;;4818314;29;20133;-79
2022/11/19 04:10:17;;;;;;;4.82;1.30;;;14.40;61.10;;;;;;4827994;29;20029;-80
2022/11/19 04:12:45;;;;;;;4.65;1.52;;;14.30;62.10;;;;;;4819137;29;20061;-81
2022/11/19 04:15:20;;;;;;;8.77;2.03;;;14.30;61.70;;;;;;4823525;29;20493;-81
2022/11/19 04:17:48;;;;;;;6.07;1.70;;;14.20;62.00;;;;;;4815731;29;20077;-79
2022/11/19 04:20:14;;;;;;;6.10;1.50;;;14.10;62.30;;;;;;4834030;29;20421;-85
2022/11/19 04:22:41;;;;;;;9.10;1.70;;;14.10;62.20;;;;;;4829323;29;20092;-78
2022/11/19 04:25:21;;;;;;;3.15;1.17;;;14.00;62.20;;;;;;4844510;29;20050;-81
2022/11/19 04:28:02;;;;;;;4.40;1.20;;;14.00;62.20;;;;;;4828460;29;20054;-81
2022/11/19 04:30:41;;;;;;;8.98;1.52;;;13.90;62.40;;;;;;4813269;29;20547;-81
2022/11/19 04:33:07;;;;;;;7.72;1.40;;;13.90;62.70;;;;;;4827969;29;20061;-81
2022/11/19 04:35:33;;;;;;;5.95;1.80;;;13.80;62.00;;;;;;4828589;29;20437;-80
2022/11/19 04:38:01;;;;;;;7.05;1.60;;;13.80;62.20;;;;;;4843567;29;20089;-82
2022/11/19 04:40:27;;;;;;;6.10;1.70;;;13.80;61.70;;;;;;4810020;29;20053;-78
2022/11/19 04:43:22;;;;;;;11.27;2.13;;;13.80;61.10;;;;;;4845674;29;20038;-80
2022/11/19 04:45:51;;;;;;;4.40;1.67;;;13.80;60.20;;;;;;4843085;29;20050;-79
2022/11/19 04:48:40;;;;;;;5.32;2.33;;;13.70;59.50;;;;;;4812593;29;20041;-79
2022/11/19 04:51:44;;;;;;;4.55;2.15;;;13.70;59.10;;;;;;4844207;29;20073;-80
2022/11/19 04:54:09;;;;;;;4.55;1.90;;;13.70;58.50;;;;;;4839709;29;20447;-78
2022/11/19 04:56:49;;;;;;;6.22;2.13;;;13.60;58.00;;;;;;4827420;29;20185;-85
2022/11/19 04:59:18;;;;;;;4.18;2.17;;;13.60;57.60;;;;;;4827906;29;20141;-78
2022/11/19 05:01:44;;;;;;;2.80;1.92;;;13.60;57.30;;;;;;4812610;29;20038;-77
2022/11/19 05:04:54;;;;;;;4.97;1.75;;;13.50;56.90;;;;;;4841547;29;20057;-80
2022/11/19 05:07:22;;;;;;;4.03;2.28;;;13.50;56.60;;;;;;4845797;29;20045;-81
2022/11/19 05:09:53;;;;;;;4.47;2.05;;;13.40;56.60;;;;;;4830972;29;20073;-80
2022/11/19 05:12:21;;;;;;;2.80;1.90;;;13.40;56.40;;;;;;4845539;29;20041;-80
2022/11/19 05:14:47;;;;;;;6.90;2.72;;;13.40;56.30;;;;;;4845107;29;20053;-83
2022/11/19 05:17:15;;;;;;;5.00;1.95;;;13.30;56.40;;;;;;4861364;29;20132;-79
2022/11/19 05:19:49;;;;;;;5.53;2.17;;;13.30;56.90;;;;;;4861733;29;20077;-79
2022/11/19 05:22:15;;;;;;;9.90;2.42;;;13.30;57.40;;;;;;4869382;29;20112;-78
2022/11/19 05:24:41;;;;;;;7.68;2.30;;;13.30;57.90;;;;;;4849335;29;20056;-79
2022/11/19 05:27:07;;;;;;;4.43;2.38;;;13.30;58.00;;;;;;4880593;29;20109;-76
2022/11/19 05:29:33;;;;;;;8.88;2.75;;;13.30;57.00;;;;;;4865103;29;20433;-78
2022/11/19 05:32:11;;;;;;;6.57;2.60;;;13.30;55.00;;;;;;4862499;29;20049;-77
2022/11/19 05:34:47;;;;;;;7.53;2.95;;;13.20;53.00;;;;;;4846330;29;20056;-80
2022/11/19 05:37:16;;;;;;;8.20;2.95;;;13.10;52.90;;;;;;4831411;29;20049;-80
2022/11/19 05:39:41;;;;;;;5.35;2.83;;;13.00;54.00;;;;;;4861626;29;20041;-76
2022/11/19 05:42:07;;;;;;;5.78;2.40;;;13.00;54.70;;;;;;4830637;29;20064;-76
2022/11/19 05:44:33;;;;;;;13.88;3.00;;;13.10;56.00;;;;;;4846287;29;20060;-78
2022/11/19 05:46:58;;;;;;;7.63;2.80;;;13.30;55.30;;;;;;4862172;29;20515;-77
2022/11/19 05:49:24;;;;;;;8.07;1.92;;;13.60;55.60;;;;;;4838229;29;20037;-79
2022/11/19 05:51:50;;;;;;;7.65;1.90;;;13.90;55.90;;;;;;4860936;29;20141;-78
2022/11/19 05:54:16;;;;;;;8.50;2.20;;;14.20;56.10;;;;;;4846081;29;20129;-79
2022/11/19 05:56:42;;;;;;;8.52;2.05;;;14.40;56.40;;;;;;4862585;29;20050;-77
2022/11/19 05:59:07;;;;;;;12.68;2.30;;;14.50;56.70;;;;;;4861784;29;20152;-79
2022/11/19 06:01:33;;;;;;;5.22;2.13;;;14.60;54.40;;;;;;4845621;29;20045;-79
2022/11/19 06:03:59;;;;;;;9.57;2.17;;;14.50;56.90;;;;;;4845844;29;20480;-79
2022/11/19 06:06:26;;;;;;;8.43;1.90;;;14.60;57.40;;;;;;4830853;29;20062;-78
2022/11/19 06:08:54;;;;;;;7.80;2.25;;;14.60;57.70;;;;;;4861993;29;20041;-81
2022/11/19 06:14:07;;;;;;;9.85;2.20;;;14.70;58.10;;;;;;4861938;29;20077;-80
2022/11/19 06:16:43;;;;;;;9.05;2.63;;;14.70;58.30;;;;;;4829442;29;20056;-80
2022/11/19 06:19:09;;;;;;;12.50;2.28;;;14.60;58.40;;;;;;4862187;29;20049;-78
2022/11/19 06:21:35;;;;;;;9.38;2.17;;;14.70;58.70;;;;;;4864757;29;20475;-79
2022/11/19 06:24:01;;;;;;;11.40;2.00;;;14.70;58.20;;;;;;4865311;29;20162;-78
2022/11/19 06:26:28;;;;;;;10.60;2.38;;;14.30;56.80;;;;;;4849879;29;20477;-80
2022/11/19 06:28:55;;;;;;;13.73;2.05;;;14.50;58.30;;;;;;4855377;29;20388;-78
2022/11/19 06:31:21;;;;;;;13.48;2.13;;;14.60;58.40;;;;;;4848359;29;20053;-79
2022/11/19 06:33:47;;;;;;;10.02;2.72;;;14.80;58.50;;;;;;4864898;29;20045;-77
2022/11/19 06:36:14;;;;;;;13.15;1.95;;;14.80;52.90;;;;;;4864605;29;20037;-77
2022/11/19 06:38:39;;;;;;;16.75;2.10;;;15.00;57.70;;;;;;4865042;29;20045;-79
2022/11/19 06:41:05;;;;;;;13.27;2.88;;;15.10;57.90;;;;;;4864796;29;20440;-80
2022/11/19 06:43:31;;;;;;;11.98;2.75;;;15.20;57.90;;;;;;4848497;29;20063;-81
2022/11/19 06:45:57;;;;;;;10.95;2.35;;;15.40;57.80;;;;;;4847411;29;20057;-81
2022/11/19 06:48:23;;;;;;;20.85;3.10;;;14.60;56.50;;;;;;4847319;29;20046;-81
2022/11/19 06:50:48;;;;;;;18.42;2.80;;;14.90;58.20;;;;;;4863364;29;20125;-73
2022/11/19 06:53:14;;;;;;;6.35;2.70;;;15.00;55.30;;;;;;4863716;29;20053;-77
2022/11/19 06:55:40;;;;;;;10.80;2.45;;;15.10;53.90;;;;;;4861712;29;20121;-77
2022/11/19 06:58:07;;;;;;;11.35;2.80;;;15.00;53.30;;;;;;4861511;29;20053;-78
2022/11/19 07:00:34;;;;;;;10.27;2.50;;;15.20;53.20;;;;;;4862167;29;20121;-74
2022/11/19 07:03:00;;;;;;;14.18;3.08;;;15.20;53.40;;;;;;4858021;29;20060;-74
2022/11/19 07:05:26;;;;;;;13.70;2.55;;;15.20;53.70;;;;;;4862482;29;20075;-79
2022/11/19 07:07:52;;;;;;;11.13;2.28;;;15.10;53.00;;;;;;4864608;29;20132;-77
2022/11/19 07:10:17;;;;;;;13.60;2.78;;;15.10;52.90;;;;;;4857780;29;20057;-76
2022/11/19 07:12:43;;;;;;;11.23;2.63;;;15.10;53.20;;;;;;4843641;29;20500;-77
2022/11/19 07:15:09;;;;;;;10.55;2.42;;;15.00;52.70;;;;;;4864682;29;20125;-76
2022/11/19 07:17:36;;;;;;;14.13;2.20;;;15.00;52.90;;;;;;4864390;29;20449;-76
2022/11/19 07:20:03;;;;;;;5.70;1.90;;;14.90;53.00;;;;;;4862576;29;20049;-76
2022/11/19 07:22:29;;;;;;;10.75;2.53;;;14.80;53.10;;;;;;4854061;29;20046;-77
2022/11/19 07:24:54;;;;;;;5.07;1.90;;;14.70;53.30;;;;;;4845825;29;20526;-77
2022/11/19 07:27:20;;;;;;;9.82;2.30;;;14.70;53.50;;;;;;4830700;29;20056;-78
2022/11/19 07:29:46;;;;;;;7.97;1.92;;;14.60;53.70;;;;;;4861110;29;20349;-76
2022/11/19 07:32:11;;;;;;;13.02;2.58;;;14.60;54.10;;;;;;4858784;29;20053;-77
2022/11/19 07:34:37;;;;;;;14.13;2.42;;;14.30;53.90;;;;;;4837835;29;20046;-77
2022/11/19 07:37:03;;;;;;;23.23;3.50;;;14.20;55.30;;;;;;4863664;29;20050;-77
2022/11/19 07:39:28;;;;;;;23.17;3.97;;;14.30;56.10;;;;;;4864548;29;20057;-79
2022/11/19 07:44:38;;;;;;;;;;;14.20;56.60;;;;;;4830344;29;20054;-80
2022/11/19 07:47:06;;;;;;;25.92;3.97;;;13.70;53.10;;;;;;4813957;29;19921;-80
2022/11/19 07:49:34;;;;;;;12.30;2.70;;;13.70;56.80;;;;;;4830132;29;20050;-80
2022/11/19 07:52:00;;;;;;;18.27;3.65;;;13.70;58.00;;;;;;4846405;29;20054;-79
2022/11/19 07:54:26;;;;;;;16.75;4.18;;;13.80;58.60;;;;;;4858815;29;20119;-80
2022/11/19 07:56:52;;;;;;;16.92;2.80;;;13.80;59.20;;;;;;4829060;29;20449;-75
2022/11/19 07:59:25;;;;;;;13.90;2.63;;;13.90;59.30;;;;;;4845438;29;20046;-79
2022/11/19 08:02:57;;;;;;;17.10;5.00;;;13.90;57.60;;;;;;4839337;29;20368;-77
2022/11/19 08:06:03;;;;;;;15.73;3.72;;;13.90;56.60;;;;;;4862062;29;20121;-81
2022/11/19 08:08:43;;;;;;;15.15;3.20;;;13.90;55.60;;;;;;4826220;29;20078;-78
2022/11/19 08:11:19;;;;;;;20.40;3.78;;;13.80;55.70;;;;;;4860232;29;20116;-78
2022/11/19 08:13:45;;;;;;;18.05;4.35;;;13.90;55.90;;;;;;4863486;29;20065;-75
2022/11/19 08:18:11;;;;;;;9.13;3.35;;;13.80;55.60;;;;;;4862921;29;20143;-76
2022/11/19 08:21:53;;;;;;;3.67;2.72;;;13.70;48.50;;;;;;4841291;29;20057;-78
2022/11/19 08:24:19;;;;;;;6.93;3.22;;;13.50;46.30;;;;;;4858131;29;20046;-79
2022/11/19 08:26:54;;;;;;;4.90;3.13;;;13.40;45.20;;;;;;4854214;29;20034;-81
2022/11/19 08:29:26;;;;;;;4.60;3.05;;;13.30;45.20;;;;;;4843619;29;20054;-79
2022/11/19 08:39:11;;;;;;;7.70;2.58;;;13.20;46.60;;;;;;5175513;24;20129;-82
2022/11/19 08:48:27;;;;;;;12.07;3.22;;;13.00;51.10;;;;;;4809935;29;20470;-77
2022/11/19 08:50:56;;;;;;;8.63;3.15;;;13.10;51.30;;;;;;4825939;29;20085;-81
2022/11/19 08:53:21;;;;;;;14.45;2.67;;;13.10;50.60;;;;;;4826394;29;20058;-81
2022/11/19 08:55:51;;;;;;;8.13;3.13;;;13.10;50.40;;;;;;4820970;29;20046;-81
2022/11/19 08:58:17;;;;;;;9.05;3.17;;;13.10;50.80;;;;;;4829092;29;20045;-81
2022/11/19 09:00:43;;;;;;;5.95;2.25;;;13.10;51.30;;;;;;4839049;29;20534;-78
2022/11/19 09:03:08;;;;;;;9.02;3.00;;;13.00;51.70;;;;;;4799074;29;20463;-78
2022/11/19 09:06:12;;;;;;;5.55;2.17;;;13.00;52.00;;;;;;4809911;29;20042;-79
2022/11/19 09:08:43;;;;;;;7.10;2.40;;;12.80;53.70;;;;;;4838918;29;20042;-78
2022/11/19 09:11:15;;;;;;;3.78;2.13;;;13.00;53.20;;;;;;4810031;29;20082;-78
2022/11/19 09:13:42;;;;;;;6.40;2.63;;;13.00;53.60;;;;;;4825017;29;20054;-79
2022/11/19 09:16:09;;;;;;;7.55;2.50;;;12.90;53.80;;;;;;4826070;29;20053;-78
2022/11/19 09:18:37;;;;;;;7.63;1.92;;;13.00;54.00;;;;;;4831055;29;20046;-79
2022/11/19 09:21:04;;;;;;;8.63;2.25;;;12.90;54.30;;;;;;4819960;29;20049;-77
2022/11/19 09:23:30;;;;;;;9.20;2.95;;;12.90;54.50;;;;;;4827599;29;20078;-79
2022/11/19 09:26:07;;;;;;;5.65;2.60;;;12.90;54.90;;;;;;4824238;29;20050;-78
2022/11/19 09:28:33;;;;;;;6.90;2.47;;;12.90;55.60;;;;;;4833039;29;20151;-77
2022/11/19 09:31:05;;;;;;;6.10;2.03;;;12.90;55.60;;;;;;4827177;29;20465;-76
2022/11/19 09:33:34;;;;;;;7.55;2.50;;;12.90;55.90;;;;;;4832897;29;20070;-77
2022/11/19 09:36:00;;;;;;;7.30;2.13;;;12.90;56.30;;;;;;4824360;29;20462;-79
2022/11/19 09:38:26;;;;;;;4.75;2.10;;;12.90;56.50;;;;;;4832184;29;20066;-79
2022/11/19 09:40:54;;;;;;;6.75;2.58;;;12.80;56.70;;;;;;4810138;29;20110;-78
2022/11/19 09:43:25;;;;;;;5.70;2.30;;;12.90;56.60;;;;;;4843999;29;20057;-77
2022/11/19 09:46:09;;;;;;;9.20;2.00;;;12.90;56.70;;;;;;4844348;29;20092;-76
2022/11/19 09:48:41;;;;;;;7.07;1.75;;;13.00;57.10;;;;;;4808037;29;20057;-75
2022/11/19 09:51:27;;;;;;;9.18;2.55;;;13.00;57.00;;;;;;4791566;29;20129;-78
2022/11/19 09:54:04;;;;;;;6.32;1.65;;;13.00;57.20;;;;;;4809106;29;20062;-78
2022/11/19 09:56:40;;;;;;;5.53;1.73;;;12.90;57.30;;;;;;4811539;29;20127;-78
2022/11/19 09:59:22;;;;;;;7.45;2.15;;;13.00;57.50;;;;;;4811056;29;20093;-78
2022/11/19 10:01:48;;;;;;;7.35;2.22;;;13.10;57.60;;;;;;4808193;29;20037;-78
2022/11/19 10:04:21;;;;;;;5.13;1.50;;;13.40;57.10;;;;;;4831078;29;20613;-78
2022/11/19 10:06:56;;;;;;;4.85;1.98;;;13.70;57.00;;;;;;4829660;29;20042;-78
2022/11/19 10:09:25;;;;;;;9.88;2.10;;;14.00;56.60;;;;;;4831097;29;20050;-75
2022/11/19 10:12:00;;;;;;;7.18;1.58;;;14.30;56.20;;;;;;4847187;29;20046;-74
2022/11/19 10:14:40;;;;;;;8.80;2.45;;;14.20;55.20;;;;;;4845354;29;20326;-77
2022/11/19 10:18:09;;;;;;;;;;;;;;;;;;;;;
2022/11/19 10:21:26;;;;;;;17.92;2.88;;;14.50;51.00;;;;;;4830321;29;20141;-76
2022/11/19 10:24:35;;;;;;;10.60;2.33;;;14.60;51.60;;;;;;4795981;29;20066;-77
2022/11/19 10:27:11;;;;;;;9.73;2.67;;;14.70;51.70;;;;;;4833974;29;20047;-78
2022/11/19 10:29:39;;;;;;;16.05;2.28;;;14.80;52.10;;;;;;4812328;29;20046;-77
2022/11/19 10:32:17;;;;;;;12.65;2.53;;;14.80;52.40;;;;;;4813259;29;20042;-76
2022/11/19 10:50:40;;;;;;;9.48;2.72;;;15.40;53.80;;;;;;4751548;30;20134;-78
2022/11/19 10:53:28;;;;;;;14.55;2.70;;;15.50;52.60;;;;;;4771814;30;20051;-78
2022/11/19 10:56:26;;;;;;;19.17;3.72;;;15.50;52.50;;;;;;4793548;29;20101;-80
2022/11/19 10:58:59;;;;;;;11.10;2.50;;;15.50;53.00;;;;;;4802962;29;20147;-78
2022/11/19 11:01:33;;;;;;;16.88;3.05;;;15.40;53.30;;;;;;4811748;29;20054;-78
2022/11/19 11:04:19;;;;;;;16.02;3.22;;;15.50;53.80;;;;;;4835652;29;20177;-79
2022/11/19 11:06:55;;;;;;;15.32;2.13;;;15.40;54.40;;;;;;4847269;29;20133;-78
2022/11/19 11:09:34;;;;;;;16.20;2.70;;;15.30;54.90;;;;;;4863659;29;20041;-76
2022/11/19 11:15:26;;;;;;;19.77;3.28;;;15.20;55.30;;;;;;4796718;29;20043;-77
2022/11/19 11:18:09;;;;;;;13.05;2.75;;;15.10;53.90;;;;;;4863985;29;20473;-75
2022/11/19 11:24:44;;;;;;;16.77;3.13;;;14.90;50.50;;;;;;4857665;29;20098;-78
2022/11/19 11:42:41;;;;;;;4.38;2.45;;;14.50;52.30;;;;;;4827002;29;20554;-80
2022/11/19 11:45:26;;;;;;;3.47;2.53;;;14.40;49.40;;;;;;4806151;29;20046;-79
2022/11/19 11:47:51;;;;;;;2.63;2.35;;;14.30;43.10;;;;;;4796614;29;20046;-80
2022/11/19 11:50:23;;;;;;;3.83;2.60;;;13.90;42.50;;;;;;4811200;29;20046;-80
2022/11/19 11:52:51;;;;;;;2.67;2.15;;;13.50;42.60;;;;;;4826128;29;20446;-80
2022/11/19 11:55:23;;;;;;;2.47;2.22;;;13.20;44.70;;;;;;4811257;29;20102;-80
2022/11/19 11:57:53;;;;;;;1.85;1.50;;;13.10;46.40;;;;;;4810805;29;20046;-79
2022/11/19 12:00:42;;;;;;;2.88;1.85;;;13.20;47.50;;;;;;4795519;29;20099;-80
2022/11/19 12:03:08;;;;;;;2.95;1.63;;;13.30;48.60;;;;;;4795549;29;20053;-81
2022/11/19 12:06:13;;;;;;;2.63;1.75;;;13.30;49.20;;;;;;4826479;29;20050;-81
2022/11/19 12:09:03;;;;;;;3.42;2.00;;;13.40;49.90;;;;;;4810988;29;20374;-83
2022/11/19 12:11:53;;;;;;;3.28;1.67;;;13.40;49.40;;;;;;4810912;29;20058;-79
2022/11/19 12:14:28;;;;;;;1.85;1.67;;;13.50;48.80;;;;;;4795765;29;20180;-80
2022/11/19 12:28:46;;;;;;;1.98;1.20;;;13.50;50.40;;;;;;4828803;29;20446;-79
2022/11/19 12:31:55;;;;;;;1.67;1.05;;;13.40;50.80;;;;;;4829081;29;20038;-79
2022/11/19 12:35:29;;;;;;;;;;;;;;;;;;;;;
2022/11/19 12:38:21;;;;;;;;;;;13.40;51.60;;;;;;4844938;29;20130;-79
2022/11/19 12:41:42;;;;;;;1.00;0.70;;;13.30;51.80;;;;;;4843604;29;20326;-79
2022/11/19 12:44:47;;;;;;;1.90;1.17;;;13.30;52.20;;;;;;4831368;29;20057;-79
2022/11/19 12:48:03;;;;;;;1.50;0.90;;;13.30;52.70;;;;;;4839384;29;20045;-79
2022/11/19 12:51:03;;;;;;;8.13;1.50;;;13.40;53.30;;;;;;4846282;29;20494;-76
2022/11/19 12:54:05;;;;;;;10.20;1.88;;;13.40;52.60;;;;;;4828574;29;20052;-78
2022/11/19 12:56:56;;;;;;;7.85;1.67;;;13.40;53.50;;;;;;4831181;29;20053;-77
2022/11/19 12:59:55;;;;;;;4.05;1.48;;;13.40;53.50;;;;;;4831347;29;20073;-78
2022/11/19 13:02:44;;;;;;;4.28;1.27;;;13.40;53.50;;;;;;4846151;29;20053;-77
2022/11/19 13:05:16;;;;;;;3.47;1.20;;;13.40;53.70;;;;;;4824720;29;20389;-79
2022/11/19 13:07:52;;;;;;;3.90;1.17;;;13.50;53.70;;;;;;4845994;29;20053;-77
2022/11/19 13:10:23;;;;;;;4.68;1.20;;;13.40;53.60;;;;;;4862717;29;20445;-78
2022/11/19 13:12:53;;;;;;;3.03;1.45;;;13.40;54.00;;;;;;4862690;29;20053;-77
2022/11/19 13:15:27;;;;;;;2.25;0.95;;;13.40;54.10;;;;;;4862758;29;20129;-79
2022/11/19 13:17:56;;;;;;;3.88;1.45;;;13.40;54.40;;;;;;4846877;29;20053;-77
2022/11/19 13:20:35;;;;;;;2.92;0.60;;;13.40;54.60;;;;;;4862938;29;20491;-78
2022/11/19 13:23:04;;;;;;;6.47;1.60;;;13.40;54.90;;;;;;4846288;29;20041;-78
2022/11/19 13:25:44;;;;;;;5.50;1.40;;;13.40;54.70;;;;;;4846476;29;20061;-79
2022/11/19 13:28:26;;;;;;;1.73;1.05;;;13.40;54.70;;;;;;4863355;29;20330;-78
2022/11/19 13:30:57;;;;;;;3.22;1.17;;;13.30;55.00;;;;;;4863947;29;20045;-79
2022/11/19 13:33:31;;;;;;;5.28;1.50;;;13.30;55.40;;;;;;4864687;29;20057;-79
2022/11/19 13:36:02;;;;;;;;;;;13.30;55.40;;;;;;4850348;29;20057;-80
2022/11/19 13:38:46;;;;;;;3.95;1.02;;;13.30;55.50;;;;;;4850148;29;19924;-81
2022/11/19 13:41:23;;;;;;;4.97;1.50;;;13.30;56.20;;;;;;4849649;29;20476;-78
2022/11/19 13:46:54;;;;;;;5.05;1.65;;;13.20;56.90;;;;;;4849595;29;20053;-79
2022/11/19 13:49:36;;;;;;;4.10;0.98;;;13.20;56.90;;;;;;4864800;29;20144;-79
2022/11/19 13:52:30;;;;;;;3.92;0.93;;;13.10;57.40;;;;;;4866311;29;20094;-77
2022/11/19 13:54:58;;;;;;;1.52;0.70;;;13.20;57.10;;;;;;4865775;29;20124;-76
2022/11/19 13:57:33;;;;;;;3.53;0.90;;;13.20;57.20;;;;;;4849682;29;20435;-79
2022/11/19 14:00:19;;;;;;;4.30;1.13;;;13.20;57.30;;;;;;4834347;29;20053;-79
2022/11/19 14:03:04;;;;;;;5.45;0.75;;;13.20;57.50;;;;;;4849602;29;20042;-78
2022/11/19 14:06:05;;;;;;;2.50;1.05;;;13.30;57.50;;;;;;4834211;29;20050;-79
2022/11/19 14:08:30;;;;;;;3.28;1.13;;;13.30;57.40;;;;;;4855090;29;20059;-80
2022/11/19 14:11:34;;;;;;;3.08;1.10;;;13.30;57.60;;;;;;4849110;29;20124;-81
2022/11/19 14:27:23;;;;;;;3.78;1.10;;;13.20;58.70;;;;;;4865268;29;20037;-80
2022/11/19 14:29:57;;;;;;;;;;;13.20;58.90;;;;;;4849348;29;20506;-80
2022/11/19 14:32:57;;;;;;;2.95;0.70;;;13.20;59.00;;;;;;4846899;29;19984;-80
2022/11/19 14:35:35;;;;;;;5.97;1.25;;;13.20;59.10;;;;;;4834007;29;20133;-80
2022/11/19 14:38:48;;;;;;;3.72;0.82;;;13.20;59.20;;;;;;4846702;29;20057;-80
2022/11/19 14:41:35;;;;;;;2.58;0.88;;;13.20;59.30;;;;;;4831844;29;20538;-80
2022/11/19 14:44:08;;;;;;;7.30;2.45;;;13.20;59.60;;;;;;4848565;29;20049;-80
2022/11/19 14:46:43;;;;;;;6.90;2.20;;;13.20;59.10;;;;;;4864878;29;20121;-78
2022/11/19 14:49:26;;;;;;;8.48;1.58;;;13.20;58.90;;;;;;4849345;29;20433;-80
2022/11/19 14:52:00;;;;;;;6.20;1.60;;;13.20;58.90;;;;;;4864677;29;20124;-80
2022/11/19 14:54:30;;;;;;;7.88;1.35;;;13.20;58.90;;;;;;4859340;29;20118;-80
2022/11/19 14:57:06;;;;;;;7.03;1.30;;;13.20;59.10;;;;;;4835582;29;20057;-78
2022/11/19 14:59:37;;;;;;;5.07;1.13;;;13.20;59.50;;;;;;4853700;29;20045;-78
2022/11/19 15:02:26;;;;;;;5.22;1.15;;;13.10;59.90;;;;;;4814762;29;20125;-80
2022/11/19 15:05:06;;;;;;;6.80;1.83;;;13.20;59.80;;;;;;4830128;29;20056;-81
2022/11/19 15:08:11;;;;;;;6.55;2.55;;;13.20;59.30;;;;;;4830769;29;20054;-81
2022/11/19 15:11:09;;;;;;;7.25;1.67;;;13.20;60.60;;;;;;4812460;29;20038;-80
2022/11/19 15:14:05;;;;;;;6.80;1.83;;;13.20;59.00;;;;;;4845807;29;20109;-80
2022/11/19 15:16:33;;;;;;;5.35;1.33;;;13.20;59.00;;;;;;4845241;29;20126;-79
2022/11/19 15:19:33;;;;;;;3.72;1.42;;;13.20;59.10;;;;;;4844896;29;20053;-78
2022/11/19 15:22:19;;;;;;;10.68;2.22;;;13.20;59.30;;;;;;4845813;29;20121;-78
2022/11/19 15:25:19;;;;;;;5.35;1.98;;;13.20;59.00;;;;;;4845782;29;20045;-78
2022/11/19 15:28:15;;;;;;;6.32;1.98;;;13.30;57.10;;;;;;4841236;29;20521;-76
2022/11/19 15:31:02;;;;;;;7.10;2.53;;;13.30;54.80;;;;;;4811092;29;20102;-75
2022/11/19 15:33:28;;;;;;;7.93;2.60;;;13.20;53.00;;;;;;4858410;29;20088;-77
2022/11/19 15:36:10;;;;;;;8.63;2.30;;;13.20;52.20;;;;;;4858589;29;20458;-77
2022/11/19 15:38:43;;;;;;;6.55;1.90;;;13.20;52.10;;;;;;4845471;29;20061;-74
2022/11/19 15:41:14;;;;;;;10.82;2.53;;;13.10;52.20;;;;;;4845686;29;20473;-77
2022/11/19 15:43:50;;;;;;;5.60;2.10;;;13.20;52.40;;;;;;4829813;29;20066;-80
2022/11/19 15:46:38;;;;;;;14.52;2.58;;;13.10;52.60;;;;;;4845412;29;20053;-78
2022/11/19 15:49:09;;;;;;;17.83;2.67;;;13.00;53.10;;;;;;4845636;29;20052;-77
2022/11/19 15:51:45;;;;;;;13.00;2.78;;;13.10;53.70;;;;;;4844848;29;20106;-77
2022/11/19 15:54:11;;;;;;;7.85;2.03;;;13.20;54.30;;;;;;4844010;29;20415;-78
2022/11/19 15:56:38;;;;;;;13.95;2.55;;;13.60;54.80;;;;;;4828738;29;20060;-75
2022/11/19 15:59:08;;;;;;;16.13;2.83;;;13.90;55.00;;;;;;4828606;29;20050;-78
2022/11/19 16:01:34;;;;;;;14.45;3.50;;;14.00;55.40;;;;;;4833534;29;20060;-81
2022/11/19 16:04:40;;;;;;;19.73;3.40;;;14.30;55.00;;;;;;4846860;29;20045;-79
2022/11/19 16:08:08;;;;;;;19.25;3.67;;;14.50;55.10;;;;;;4846973;29;20077;-80
2022/11/19 16:10:44;;;;;;;18.63;3.35;;;14.60;55.90;;;;;;4831544;29;20048;-80
2022/11/19 16:19:14;;;;;;;12.98;3.10;;;14.70;58.90;;;;;;4845293;29;20424;-78
2022/11/19 16:21:42;;;;;;;21.23;4.20;;;14.60;59.00;;;;;;4848843;29;20098;-78
2022/11/19 16:26:59;;;;;;;29.40;4.25;;;14.80;60.80;;;;;;4846653;29;20454;-77
2022/11/19 16:29:27;;;;;;;24.48;3.67;;;14.80;60.90;;;;;;4847226;29;20085;-76
2022/11/19 16:31:56;;;;;;;23.75;3.85;;;14.80;61.30;;;;;;4857890;29;20465;-77
2022/11/19 16:34:30;;;;;;;15.45;3.25;;;14.90;61.70;;;;;;4861702;29;20449;-79
2022/11/19 16:36:56;;;;;;;19.58;3.10;;;15.00;62.10;;;;;;4863222;29;20057;-77
2022/11/19 16:39:27;;;;;;;11.93;3.17;;;15.10;62.00;;;;;;4854698;29;20049;-79
2022/11/19 16:44:41;;;;;;;14.57;3.00;;;15.30;62.00;;;;;;4844612;29;20046;-78
2022/11/19 16:47:24;;;;;;;13.18;3.28;;;15.40;61.90;;;;;;4844454;29;20062;-79
2022/11/19 16:49:50;;;;;;;21.20;3.30;;;15.50;62.00;;;;;;4844447;29;20065;-78
2022/11/19 16:52:35;;;;;;;27.13;4.20;;;15.50;61.90;;;;;;4844228;29;20057;-77
2022/11/19 16:55:04;;;;;;;21.60;4.07;;;15.50;62.70;;;;;;4810734;29;20062;-77
2022/11/19 16:57:31;;;;;;;16.70;3.50;;;15.40;60.80;;;;;;4826195;29;20054;-75
2022/11/19 17:00:00;;;;;;;13.80;2.88;;;15.50;62.40;;;;;;4826196;29;20065;-77
2022/11/19 17:02:38;;;;;;;14.75;3.28;;;15.50;62.40;;;;;;4825349;29;20487;-77
2022/11/19 17:05:11;;;;;;;15.80;3.58;;;15.50;62.50;;;;;;4809950;29;20366;-74
2022/11/19 17:07:38;;;;;;;13.55;3.38;;;15.50;62.50;;;;;;4826386;29;20050;-76
2022/11/19 17:10:29;;;;;;;11.85;3.28;;;15.40;62.20;;;;;;4826168;29;20079;-76
2022/11/19 17:13:05;;;;;;;14.95;2.70;;;15.40;62.50;;;;;;4836956;29;20042;-79
2022/11/19 17:15:35;;;;;;;7.95;2.45;;;15.40;62.50;;;;;;4843000;29;20041;-75
2022/11/19 17:18:26;;;;;;;14.18;3.88;;;15.30;62.60;;;;;;4844381;29;20386;-73
2022/11/19 17:21:07;;;;;;;10.93;3.05;;;15.20;62.60;;;;;;4843981;29;20145;-76
2022/11/19 17:23:45;;;;;;;11.60;3.55;;;15.10;62.60;;;;;;4843590;29;20435;-75
2022/11/19 17:26:18;;;;;;;16.08;3.65;;;15.10;62.90;;;;;;4844156;29;20128;-77
2022/11/19 17:28:47;;;;;;;12.52;3.08;;;15.10;62.80;;;;;;4827919;29;20101;-75
2022/11/19 17:31:17;;;;;;;6.53;2.55;;;15.00;62.60;;;;;;4843940;29;20383;-75
2022/11/19 17:33:50;;;;;;;11.82;3.15;;;15.00;62.50;;;;;;4843462;29;20046;-76
2022/11/19 17:36:16;;;;;;;13.05;3.45;;;15.00;62.40;;;;;;4844087;29;20201;-76
2022/11/19 17:38:42;;;;;;;14.75;2.92;;;14.90;62.30;;;;;;4844424;29;20128;-77
2022/11/19 17:41:11;;;;;;;8.30;2.67;;;14.90;62.30;;;;;;4844227;29;20066;-75
2022/11/19 17:46:24;;;;;;;7.07;3.45;;;14.70;62.30;;;;;;4843797;29;20054;-76
2022/11/19 17:48:51;;;;;;;11.60;2.83;;;14.70;62.30;;;;;;4843741;29;20089;-76
2022/11/19 17:51:23;;;;;;;17.70;3.95;;;14.70;62.40;;;;;;4828344;29;20125;-75
2022/11/19 17:53:50;;;;;;;9.45;2.65;;;14.60;62.40;;;;;;4843993;29;20366;-76
2022/11/19 17:56:27;;;;;;;9.00;3.03;;;14.50;62.50;;;;;;4844164;29;20118;-76
2022/11/19 17:58:53;;;;;;;7.35;2.90;;;14.50;62.60;;;;;;4843873;29;20076;-77
2022/11/19 18:01:20;;;;;;;5.07;2.50;;;14.40;62.70;;;;;;4843862;29;20061;-75
2022/11/19 18:03:46;;;;;;;7.10;2.95;;;14.30;62.80;;;;;;4843939;29;20042;-75
2022/11/19 18:06:14;;;;;;;5.93;2.40;;;14.30;63.00;;;;;;4842862;29;20060;-77
2022/11/19 18:08:41;;;;;;;5.95;2.92;;;14.20;63.10;;;;;;4844032;29;20100;-75
2022/11/19 18:11:33;;;;;;;5.20;2.97;;;14.20;63.20;;;;;;4843257;29;20114;-77
2022/11/19 18:14:00;;;;;;;9.90;3.47;;;14.10;63.10;;;;;;4826025;29;20458;-76
2022/11/19 18:16:32;;;;;;;6.18;2.50;;;14.10;63.40;;;;;;4816260;29;20418;-73
2022/11/19 18:19:01;;;;;;;7.15;3.65;;;14.00;63.50;;;;;;4830765;29;20057;-73
2022/11/19 18:21:27;;;;;;;6.20;2.38;;;14.00;63.80;;;;;;4847155;29;20130;-75
2022/11/19 18:23:53;;;;;;;5.35;2.92;;;14.00;63.90;;;;;;4846763;29;20442;-74
2022/11/19 18:26:22;;;;;;;8.57;2.67;;;13.90;64.20;;;;;;4836834;29;20058;-75
2022/11/19 18:28:48;;;;;;;5.25;2.92;;;13.90;64.40;;;;;;4846243;29;20110;-74
2022/11/19 18:31:15;;;;;;;6.97;2.58;;;13.90;65.20;;;;;;4846376;29;20412;-75
2022/11/19 18:33:41;;;;;;;8.65;3.10;;;13.90;66.90;;;;;;4847609;29;20064;-75
2022/11/19 18:36:16;;;;;;;6.45;3.10;;;13.90;66.90;;;;;;4846601;29;20057;-75
2022/11/19 18:38:42;;;;;;;6.55;2.70;;;13.90;67.90;;;;;;4849086;29;20088;-75
2022/11/19 18:41:09;;;;;;;4.68;2.53;;;13.90;68.80;;;;;;4865107;29;20057;-77
2022/11/19 18:46:20;;;;;;;6.13;2.97;;;13.90;68.70;;;;;;4830038;29;20065;-75
2022/11/19 18:48:48;;;;;;;3.97;2.38;;;13.90;70.10;;;;;;4846471;29;20038;-75
2022/11/19 18:51:14;;;;;;;19.10;2.58;;;13.90;70.20;;;;;;4846068;29;20553;-74
2022/11/19 18:53:40;;;;;;;4.40;1.98;;;14.00;70.70;;;;;;4846582;29;20120;-75
2022/11/19 18:56:16;;;;;;;4.05;2.13;;;14.00;70.70;;;;;;4815354;29;20057;-74
2022/11/19 18:58:42;;;;;;;4.72;2.13;;;14.00;70.90;;;;;;4846619;29;20054;-75
2022/11/19 19:01:08;;;;;;;4.35;2.20;;;13.90;70.50;;;;;;4846240;29;20136;-77
2022/11/19 19:03:34;;;;;;;7.53;2.20;;;13.90;70.10;;;;;;4830178;29;20049;-75
2022/11/19 19:06:05;;;;;;;7.25;3.10;;;13.90;69.60;;;;;;4846391;29;20157;-76
2022/11/19 19:08:32;;;;;;;2.90;2.08;;;13.90;68.70;;;;;;4846572;29;20529;-76
2022/11/19 19:13:45;;;;;;;8.63;2.30;;;13.40;67.10;;;;;;4827549;29;20058;-76
2022/11/19 19:16:12;;;;;;;12.02;2.25;;;13.30;67.50;;;;;;4827138;29;20086;-76
2022/11/19 19:18:38;;;;;;;7.35;2.20;;;13.10;67.90;;;;;;4849158;29;20064;-77